Nissyomaru — JD2650 — position and weather

sailwx.info

Track history (hours):
 
Tides and Currents Weather Stations Pressure Air Temp Water Temp Dewpoint Dewpoint Depression Visibility Wind Speed Wind Dir Waves Ship Positions

Nissyomaru

Last reported at 2014-Dec-18 16:11 UTC. Time now 2014-Dec-22 08:26 UTC.
Position N 35°04' E 139°43'.

Length 75 m; draft 4 m.

Type: Cargo ship. MMSI: 431000572.

Date/timePositionNaut miles runAvg speedWind from/ knotsBaromVisibWave heightAir tempDewpointWater temp
2014-Dec-18 16:11N 35°04' E 139°43'711.5
2014-Dec-18 15:33N 35°11' E 139°46'1110.7
2014-Dec-18 14:33N 35°21' E 139°42'9 8.8
2014-Dec-18 13:33N 35°30' E 139°44'0 0.3
2014-Dec-18 12:33N 35°30' E 139°44'0 0.0
2014-Dec-18 11:33N 35°30' E 139°44'0 0.0
2014-Dec-18 10:30N 35°30' E 139°44'0 0.0
2014-Dec-18 09:30N 35°30' E 139°44'0 0.0
2014-Dec-18 06:30N 35°30' E 139°44'0 0.0
2014-Dec-18 05:33N 35°30' E 139°44'0 0.0
2014-Dec-18 04:33N 35°30' E 139°44'0 0.0
2014-Dec-18 03:33N 35°30' E 139°44'0 0.0
2014-Dec-18 02:27N 35°30' E 139°44'0 0.0
2014-Dec-18 01:12N 35°30' E 139°44'0 0.0
2014-Dec-18 00:30N 35°30' E 139°44'0 0.0
2014-Dec-17 23:33N 35°30' E 139°44'3 2.6
2014-Dec-17 22:31N 35°30' E 139°47'2 1.8
2014-Dec-17 21:33N 35°29' E 139°48'0 0.0
2014-Dec-17 20:32N 35°29' E 139°48'0 0.0
2014-Dec-17 19:33N 35°29' E 139°48'0 0.0
2014-Dec-17 18:33N 35°29' E 139°48'0 0.1
2014-Dec-17 17:31N 35°29' E 139°48'0 0.0
2014-Dec-17 16:33N 35°29' E 139°48'0 0.0
2014-Dec-17 15:32N 35°29' E 139°48'0 0.0
2014-Dec-17 14:33N 35°29' E 139°48'0 0.0
2014-Dec-17 13:33N 35°29' E 139°48'0 0.0
2014-Dec-17 12:31N 35°29' E 139°48'0 0.0
2014-Dec-17 11:31N 35°29' E 139°48'0 0.0
2014-Dec-17 10:33N 35°29' E 139°48'0 0.0
2014-Dec-17 09:33N 35°29' E 139°48'0 0.0
2014-Dec-17 08:34N 35°29' E 139°48'0 0.0
2014-Dec-17 07:31N 35°29' E 139°48'0 0.0
2014-Dec-17 06:33N 35°29' E 139°48'0 0.0
2014-Dec-17 05:33N 35°29' E 139°48'0 0.0
2014-Dec-17 04:33N 35°29' E 139°48'0 0.0
2014-Dec-17 03:33N 35°29' E 139°48'0 0.0
2014-Dec-17 02:34N 35°29' E 139°48'0 0.0
2014-Dec-17 01:33N 35°29' E 139°48'0 0.0
2014-Dec-17 00:33N 35°29' E 139°48'0 0.0
2014-Dec-16 23:33N 35°29' E 139°48'0 0.0
2014-Dec-16 22:33N 35°29' E 139°48'0 0.0
2014-Dec-16 21:33N 35°29' E 139°48'0 0.0
2014-Dec-16 20:33N 35°29' E 139°48'0 0.0
2014-Dec-16 19:29N 35°29' E 139°48'0 0.0
2014-Dec-16 18:28N 35°29' E 139°48'0 0.0
2014-Dec-16 17:33N 35°29' E 139°48'0 0.0
2014-Dec-16 16:33N 35°29' E 139°48'0 0.0
2014-Dec-16 15:33N 35°29' E 139°48'0 0.0
2014-Dec-16 14:33N 35°29' E 139°48'0 0.1
2014-Dec-16 13:34N 35°29' E 139°48'0 0.1
2014-Dec-16 12:31N 35°29' E 139°48'0 0.1
2014-Dec-16 11:32N 35°29' E 139°48'9 9.0
2014-Dec-16 10:33N 35°24' E 139°39'1 0.6
2014-Dec-16 09:29N 35°23' E 139°39'0 0.0
2014-Dec-16 08:32N 35°23' E 139°39'0 0.0
2014-Dec-16 07:32N 35°23' E 139°39'0 0.0
2014-Dec-16 06:32N 35°23' E 139°39'0 0.0
2014-Dec-16 05:32N 35°23' E 139°39'0 0.0
2014-Dec-16 04:30N 35°23' E 139°39'0 0.0
2014-Dec-16 03:29N 35°23' E 139°39'0 0.0
2014-Dec-16 02:32N 35°23' E 139°39'0 0.0
2014-Dec-16 01:05N 35°23' E 139°39'0 0.0
2014-Dec-16 00:31N 35°23' E 139°39'0 0.0
2014-Dec-15 23:20N 35°23' E 139°39'2 1.9
2014-Dec-15 22:32N 35°22' E 139°40'0 0.1
2014-Dec-15 21:31N 35°23' E 139°40'0 0.0
2014-Dec-15 20:31N 35°23' E 139°40'0 0.0
2014-Dec-15 19:31N 35°22' E 139°40'0 0.0
2014-Dec-15 18:31N 35°22' E 139°40'0 0.0
2014-Dec-15 17:31N 35°22' E 139°40'0 0.0
2014-Dec-15 16:31N 35°23' E 139°40'0 0.0
2014-Dec-15 15:31N 35°23' E 139°40'0 0.0
2014-Dec-15 14:31N 35°22' E 139°40'0 0.0
2014-Dec-15 13:31N 35°23' E 139°40'0 0.0
2014-Dec-15 12:25N 35°23' E 139°40'0 0.0
2014-Dec-15 11:31N 35°23' E 139°40'0 0.0
2014-Dec-15 10:31N 35°23' E 139°40'0 0.0
2014-Dec-15 09:31N 35°23' E 139°40'0 0.0
2014-Dec-15 08:31N 35°23' E 139°40'  
Track history (hours):
 
Tides and Currents Weather Stations Pressure Air Temp Water Temp Dewpoint Dewpoint Depression Visibility Wind Speed Wind Dir Waves Ship Positions

Nissyomaru

Last reported at 2014-Dec-18 16:11 UTC. Time now 2014-Dec-22 08:26 UTC.
Position N 35°04' E 139°43'.

Length 75 m; draft 4 m.

Type: Cargo ship. MMSI: 431000572.

Date/timePositionNaut miles runAvg speedWind from/ knotsBaromVisibWave heightAir tempDewpointWater temp
2014-Dec-18 16:11N 35°04' E 139°43'711.5
2014-Dec-18 15:33N 35°11' E 139°46'1110.7
2014-Dec-18 14:33N 35°21' E 139°42'9 8.8
2014-Dec-18 13:33N 35°30' E 139°44'0 0.3
2014-Dec-18 12:33N 35°30' E 139°44'0 0.0
2014-Dec-18 11:33N 35°30' E 139°44'0 0.0
2014-Dec-18 10:30N 35°30' E 139°44'0 0.0
2014-Dec-18 09:30N 35°30' E 139°44'0 0.0
2014-Dec-18 06:30N 35°30' E 139°44'0 0.0
2014-Dec-18 05:33N 35°30' E 139°44'0 0.0
2014-Dec-18 04:33N 35°30' E 139°44'0 0.0
2014-Dec-18 03:33N 35°30' E 139°44'0 0.0
2014-Dec-18 02:27N 35°30' E 139°44'0 0.0
2014-Dec-18 01:12N 35°30' E 139°44'0 0.0
2014-Dec-18 00:30N 35°30' E 139°44'0 0.0
2014-Dec-17 23:33N 35°30' E 139°44'3 2.6
2014-Dec-17 22:31N 35°30' E 139°47'2 1.8
2014-Dec-17 21:33N 35°29' E 139°48'0 0.0
2014-Dec-17 20:32N 35°29' E 139°48'0 0.0
2014-Dec-17 19:33N 35°29' E 139°48'0 0.0
2014-Dec-17 18:33N 35°29' E 139°48'0 0.1
2014-Dec-17 17:31N 35°29' E 139°48'0 0.0
2014-Dec-17 16:33N 35°29' E 139°48'0 0.0
2014-Dec-17 15:32N 35°29' E 139°48'0 0.0
2014-Dec-17 14:33N 35°29' E 139°48'0 0.0
2014-Dec-17 13:33N 35°29' E 139°48'0 0.0
2014-Dec-17 12:31N 35°29' E 139°48'0 0.0
2014-Dec-17 11:31N 35°29' E 139°48'0 0.0
2014-Dec-17 10:33N 35°29' E 139°48'0 0.0
2014-Dec-17 09:33N 35°29' E 139°48'0 0.0
2014-Dec-17 08:34N 35°29' E 139°48'0 0.0
2014-Dec-17 07:31N 35°29' E 139°48'0 0.0
2014-Dec-17 06:33N 35°29' E 139°48'0 0.0
2014-Dec-17 05:33N 35°29' E 139°48'0 0.0
2014-Dec-17 04:33N 35°29' E 139°48'0 0.0
2014-Dec-17 03:33N 35°29' E 139°48'0 0.0
2014-Dec-17 02:34N 35°29' E 139°48'0 0.0
2014-Dec-17 01:33N 35°29' E 139°48'0 0.0
2014-Dec-17 00:33N 35°29' E 139°48'0 0.0
2014-Dec-16 23:33N 35°29' E 139°48'0 0.0
2014-Dec-16 22:33N 35°29' E 139°48'0 0.0
2014-Dec-16 21:33N 35°29' E 139°48'0 0.0
2014-Dec-16 20:33N 35°29' E 139°48'0 0.0
2014-Dec-16 19:29N 35°29' E 139°48'0 0.0
2014-Dec-16 18:28N 35°29' E 139°48'0 0.0
2014-Dec-16 17:33N 35°29' E 139°48'0 0.0
2014-Dec-16 16:33N 35°29' E 139°48'0 0.0
2014-Dec-16 15:33N 35°29' E 139°48'0 0.0
2014-Dec-16 14:33N 35°29' E 139°48'0 0.1
2014-Dec-16 13:34N 35°29' E 139°48'0 0.1
2014-Dec-16 12:31N 35°29' E 139°48'0 0.1
2014-Dec-16 11:32N 35°29' E 139°48'9 9.0
2014-Dec-16 10:33N 35°24' E 139°39'1 0.6
2014-Dec-16 09:29N 35°23' E 139°39'0 0.0
2014-Dec-16 08:32N 35°23' E 139°39'0 0.0
2014-Dec-16 07:32N 35°23' E 139°39'0 0.0
2014-Dec-16 06:32N 35°23' E 139°39'0 0.0
2014-Dec-16 05:32N 35°23' E 139°39'0 0.0
2014-Dec-16 04:30N 35°23' E 139°39'0 0.0
2014-Dec-16 03:29N 35°23' E 139°39'0 0.0
2014-Dec-16 02:32N 35°23' E 139°39'0 0.0
2014-Dec-16 01:05N 35°23' E 139°39'0 0.0
2014-Dec-16 00:31N 35°23' E 139°39'0 0.0
2014-Dec-15 23:20N 35°23' E 139°39'2 1.9
2014-Dec-15 22:32N 35°22' E 139°40'0 0.1
2014-Dec-15 21:31N 35°23' E 139°40'0 0.0
2014-Dec-15 20:31N 35°23' E 139°40'0 0.0
2014-Dec-15 19:31N 35°22' E 139°40'0 0.0
2014-Dec-15 18:31N 35°22' E 139°40'0 0.0
2014-Dec-15 17:31N 35°22' E 139°40'0 0.0
2014-Dec-15 16:31N 35°23' E 139°40'0 0.0
2014-Dec-15 15:31N 35°23' E 139°40'0 0.0
2014-Dec-15 14:31N 35°22' E 139°40'0 0.0
2014-Dec-15 13:31N 35°23' E 139°40'0 0.0
2014-Dec-15 12:25N 35°23' E 139°40'0 0.0
2014-Dec-15 11:31N 35°23' E 139°40'0 0.0
2014-Dec-15 10:31N 35°23' E 139°40'0 0.0
2014-Dec-15 09:31N 35°23' E 139°40'0 0.0
2014-Dec-15 08:31N 35°23' E 139°40'  

Dump ship's entire track history